createdAt,value
2016-07-04T00:00:17.590Z,0
2016-07-04T00:01:17.222Z,0
2016-07-04T00:02:18.230Z,0
2016-07-04T00:03:17.289Z,0
2016-07-04T00:04:17.503Z,0
2016-07-04T00:05:17.194Z,0
2016-07-04T00:06:17.220Z,0
2016-07-04T00:07:18.089Z,0
2016-07-04T00:08:17.495Z,0
2016-07-04T00:09:17.424Z,0
2016-07-04T00:10:17.523Z,0
2016-07-04T00:11:17.468Z,0
2016-07-04T00:12:17.191Z,0
2016-07-04T00:13:17.156Z,0
2016-07-04T00:14:17.518Z,0
2016-07-04T00:15:17.502Z,0
2016-07-04T00:16:17.175Z,0
2016-07-04T00:17:17.436Z,0
2016-07-04T00:18:17.151Z,0
2016-07-04T00:19:17.439Z,0
2016-07-04T00:20:17.336Z,0
2016-07-04T00:21:17.156Z,0
2016-07-04T00:22:17.375Z,0
2016-07-04T00:23:17.264Z,0
2016-07-04T00:24:17.168Z,0
2016-07-04T00:25:18.038Z,0
2016-07-04T00:26:17.279Z,0
2016-07-04T00:27:17.340Z,0
2016-07-04T00:28:17.126Z,0
2016-07-04T00:29:16.976Z,0
2016-07-04T00:30:17.116Z,0
2016-07-04T00:31:16.973Z,0
2016-07-04T00:32:17.056Z,0
2016-07-04T00:33:17.506Z,0
2016-07-04T00:34:17.289Z,0
2016-07-04T00:35:17.308Z,0
2016-07-04T00:36:16.993Z,0
2016-07-04T00:37:17.188Z,0
2016-07-04T00:38:17.236Z,0
2016-07-04T00:39:17.111Z,0
2016-07-04T00:40:17.491Z,0
2016-07-04T00:41:17.264Z,0
2016-07-04T00:42:17.161Z,0
2016-07-04T00:43:17.128Z,0
2016-07-04T00:44:17.277Z,0
2016-07-04T00:45:17.285Z,0
2016-07-04T00:46:17.316Z,0
2016-07-04T00:47:17.269Z,0
2016-07-04T00:48:17.105Z,0
2016-07-04T00:49:17.166Z,0
2016-07-04T00:50:17.106Z,0
2016-07-04T00:51:16.979Z,0
2016-07-04T00:52:16.841Z,0
2016-07-04T00:53:17.063Z,0
2016-07-04T00:54:17.132Z,0
2016-07-04T00:55:17.025Z,0
2016-07-04T00:56:17.017Z,0
2016-07-04T00:57:16.985Z,0
2016-07-04T00:58:16.867Z,0
2016-07-04T00:59:17.117Z,0
2016-07-04T01:00:16.892Z,0
2016-07-04T01:01:17.068Z,0
2016-07-04T01:02:17.433Z,0
2016-07-04T01:03:16.903Z,0
2016-07-04T01:04:17.027Z,0
2016-07-04T01:05:17.039Z,0
2016-07-04T01:06:17.220Z,0
2016-07-04T01:07:17.064Z,0
2016-07-04T01:08:17.125Z,0
2016-07-04T01:09:17.100Z,0
2016-07-04T01:10:16.916Z,0
2016-07-04T01:11:17.202Z,0
2016-07-04T01:12:16.901Z,0
2016-07-04T01:13:16.751Z,0
2016-07-04T01:14:16.935Z,0
2016-07-04T01:15:17.015Z,0
2016-07-04T01:16:16.710Z,0
2016-07-04T01:17:17.606Z,0
2016-07-04T01:18:16.882Z,0
2016-07-04T01:19:17.243Z,0
2016-07-04T01:20:16.906Z,0
2016-07-04T01:21:16.756Z,0
2016-07-04T01:22:16.902Z,0
2016-07-04T01:23:16.856Z,0
2016-07-04T01:24:16.623Z,0
2016-07-04T01:25:16.877Z,0
2016-07-04T01:26:16.583Z,0
2016-07-04T01:27:16.795Z,0
2016-07-04T01:28:16.718Z,0
2016-07-04T01:29:16.742Z,0
2016-07-04T01:30:16.676Z,0
2016-07-04T01:31:16.567Z,0
2016-07-04T01:32:16.818Z,0
2016-07-04T01:33:16.825Z,0
2016-07-04T01:34:16.847Z,0
2016-07-04T01:35:16.804Z,0
2016-07-04T01:36:16.803Z,0
2016-07-04T01:37:16.511Z,0
2016-07-04T01:38:16.748Z,0
2016-07-04T01:39:16.786Z,0
2016-07-04T01:40:16.682Z,0
2016-07-04T01:41:16.668Z,0
2016-07-04T01:42:16.457Z,0
2016-07-04T01:43:16.516Z,0
2016-07-04T01:44:17.583Z,0
2016-07-04T01:45:16.691Z,0
2016-07-04T01:46:16.634Z,0
2016-07-04T01:47:16.424Z,0
2016-07-04T01:48:16.442Z,0
2016-07-04T01:49:16.391Z,0
2016-07-04T01:50:16.412Z,0
2016-07-04T01:51:16.625Z,0
2016-07-04T01:52:16.650Z,0
2016-07-04T01:53:16.386Z,0
2016-07-04T01:54:16.319Z,0
2016-07-04T01:55:16.401Z,0
2016-07-04T01:56:16.624Z,0
2016-07-04T01:57:16.217Z,0
2016-07-04T01:58:16.268Z,0
2016-07-04T01:59:16.192Z,0
2016-07-04T02:00:16.846Z,0
2016-07-04T02:01:16.539Z,0
2016-07-04T02:02:16.395Z,0
2016-07-04T02:03:16.271Z,0
2016-07-04T02:04:16.409Z,0
2016-07-04T02:05:16.774Z,0
2016-07-04T02:06:16.258Z,0
2016-07-04T02:07:16.220Z,0
2016-07-04T02:08:16.123Z,0
2016-07-04T02:09:16.612Z,0
2016-07-04T02:10:16.926Z,0
2016-07-04T02:11:16.313Z,0
2016-07-04T02:12:16.795Z,0
2016-07-04T02:13:16.386Z,0
2016-07-04T02:14:17.365Z,0
2016-07-04T02:15:16.414Z,0
2016-07-04T02:16:16.718Z,0
2016-07-04T02:17:16.495Z,0
2016-07-04T02:18:16.208Z,0
2016-07-04T02:19:16.121Z,0
2016-07-04T02:20:16.164Z,0
2016-07-04T02:21:16.125Z,0
2016-07-04T02:22:16.310Z,0
2016-07-04T02:23:16.311Z,0
2016-07-04T02:24:16.350Z,0
2016-07-04T02:25:16.354Z,0
2016-07-04T02:26:16.248Z,0
2016-07-04T02:27:16.098Z,0
2016-07-04T02:28:16.315Z,0
2016-07-04T02:29:16.048Z,0
2016-07-04T02:30:16.293Z,0
2016-07-04T02:31:16.400Z,0
2016-07-04T02:32:16.266Z,0
2016-07-04T02:33:16.048Z,0
2016-07-04T02:34:16.207Z,0
2016-07-04T02:35:16.312Z,0
2016-07-04T02:36:16.056Z,0
2016-07-04T02:37:16.163Z,0
2016-07-04T02:38:16.274Z,0
2016-07-04T02:39:16.030Z,0
2016-07-04T02:40:16.105Z,0
2016-07-04T02:41:16.301Z,0
2016-07-04T02:42:16.011Z,0
2016-07-04T02:43:15.887Z,0
2016-07-04T02:44:15.984Z,0
2016-07-04T02:45:16.418Z,0
2016-07-04T02:46:15.938Z,0
2016-07-04T02:47:15.880Z,0
2016-07-04T02:48:15.833Z,0
2016-07-04T02:49:16.475Z,0
2016-07-04T02:50:16.164Z,0
2016-07-04T02:51:16.633Z,0
2016-07-04T02:52:16.206Z,0
2016-07-04T02:53:15.769Z,0
2016-07-04T02:54:15.805Z,0
2016-07-04T02:55:15.956Z,0
2016-07-04T02:56:15.960Z,0
2016-07-04T02:57:15.760Z,0
2016-07-04T02:58:15.950Z,5
2016-07-04T02:59:16.690Z,5
2016-07-04T03:00:15.877Z,5
2016-07-04T03:01:15.847Z,5
2016-07-04T03:02:15.750Z,5
2016-07-04T03:03:15.701Z,5
2016-07-04T03:04:15.934Z,5
2016-07-04T03:05:16.014Z,5
2016-07-04T03:06:15.972Z,5
2016-07-04T03:07:15.787Z,10
2016-07-04T03:08:15.678Z,10
2016-07-04T03:09:15.843Z,10
2016-07-04T03:10:15.914Z,10
2016-07-04T03:11:15.626Z,10
2016-07-04T03:12:15.811Z,10
2016-07-04T03:13:15.727Z,10
2016-07-04T03:14:16.442Z,15
2016-07-04T03:15:15.734Z,15
2016-07-04T03:16:15.647Z,15
2016-07-04T03:17:15.611Z,15
2016-07-04T03:18:15.709Z,15
2016-07-04T03:19:15.535Z,15
2016-07-04T03:20:15.763Z,20
2016-07-04T03:21:15.642Z,20
2016-07-04T03:22:15.438Z,20
2016-07-04T03:23:15.511Z,20
2016-07-04T03:24:15.817Z,20
2016-07-04T03:25:15.588Z,20
2016-07-04T03:26:15.897Z,25
2016-07-04T03:27:15.541Z,25
2016-07-04T03:28:15.524Z,25
2016-07-04T03:29:15.532Z,25
2016-07-04T03:30:15.435Z,25
2016-07-04T03:31:16.249Z,30
2016-07-04T03:32:15.424Z,30
2016-07-04T03:33:15.442Z,30
2016-07-04T03:34:15.714Z,30
2016-07-04T03:35:15.650Z,30
2016-07-04T03:36:15.579Z,35
2016-07-04T03:37:15.733Z,35
2016-07-04T03:38:15.603Z,35
2016-07-04T03:39:15.569Z,35
2016-07-04T03:41:15.310Z,40
2016-07-04T03:42:15.322Z,40
2016-07-04T03:43:15.294Z,40
2016-07-04T03:44:15.349Z,40
2016-07-04T03:45:15.461Z,40
2016-07-04T03:46:15.410Z,45
2016-07-04T03:47:15.250Z,45
2016-07-04T03:48:15.232Z,45
2016-07-04T03:49:15.266Z,45
2016-07-04T03:50:15.308Z,45
2016-07-04T03:51:15.266Z,50
2016-07-04T03:52:16.330Z,50
2016-07-04T03:53:15.612Z,50
2016-07-04T03:54:15.488Z,50
2016-07-04T03:55:15.267Z,50
2016-07-04T03:56:15.357Z,50
2016-07-04T03:57:15.657Z,55
2016-07-04T03:58:15.508Z,55
2016-07-04T03:59:15.526Z,55
2016-07-04T04:00:16.193Z,55
2016-07-04T04:01:15.527Z,55
2016-07-04T04:02:15.321Z,60
2016-07-04T04:03:15.318Z,60
2016-07-04T04:04:15.381Z,60
2016-07-04T04:05:15.392Z,60
2016-07-04T04:06:15.880Z,60
2016-07-04T04:07:15.479Z,65
2016-07-04T04:08:16.204Z,65
2016-07-04T04:09:15.296Z,65
2016-07-04T04:10:15.078Z,65
2016-07-04T04:11:15.252Z,65
2016-07-04T04:12:15.302Z,65
2016-07-04T04:13:15.187Z,70
2016-07-04T04:14:15.316Z,70
2016-07-04T04:15:16.138Z,70
2016-07-04T04:16:15.322Z,70
2016-07-04T04:17:15.225Z,70
2016-07-04T04:18:15.201Z,70
2016-07-04T04:19:15.249Z,75
2016-07-04T04:20:15.302Z,75
2016-07-04T04:21:15.234Z,75
2016-07-04T04:22:15.169Z,75
2016-07-04T04:23:15.137Z,75
2016-07-04T04:24:15.125Z,75
2016-07-04T04:25:15.196Z,80
2016-07-04T04:26:15.163Z,80
2016-07-04T04:27:15.120Z,80
2016-07-04T04:28:15.172Z,80
2016-07-04T04:29:15.159Z,80
2016-07-04T04:30:15.797Z,85
2016-07-04T04:31:15.073Z,85
2016-07-04T04:32:15.129Z,85
2016-07-04T04:33:15.082Z,85
2016-07-04T04:34:15.124Z,85
2016-07-04T04:35:14.846Z,85
2016-07-04T04:36:15.100Z,90
2016-07-04T04:37:15.242Z,90
2016-07-04T04:38:15.007Z,90
2016-07-04T04:39:14.917Z,90
2016-07-04T04:40:15.064Z,90
2016-07-04T04:41:14.828Z,95
2016-07-04T04:42:14.948Z,95
2016-07-04T04:43:15.978Z,95
2016-07-04T04:44:14.951Z,95
2016-07-04T04:45:14.752Z,95
2016-07-04T04:46:14.914Z,95
2016-07-04T04:47:15.006Z,100
2016-07-04T04:48:14.798Z,100
2016-07-04T04:49:15.002Z,100
2016-07-04T04:50:14.993Z,100
2016-07-04T04:51:14.706Z,105
2016-07-04T04:52:14.788Z,105
2016-07-04T04:53:14.715Z,105
2016-07-04T04:54:14.865Z,110
2016-07-04T04:55:14.776Z,110
2016-07-04T04:56:14.885Z,120
2016-07-04T04:57:14.746Z,130
2016-07-04T04:58:14.983Z,140
2016-07-04T04:59:14.662Z,145
2016-07-04T05:00:14.831Z,145
2016-07-04T05:01:14.884Z,150
2016-07-04T05:02:14.631Z,145
2016-07-04T05:03:14.802Z,145
2016-07-04T05:04:14.871Z,150
2016-07-04T05:05:14.841Z,150
2016-07-04T05:06:14.853Z,160
2016-07-04T05:07:15.161Z,165
2016-07-04T05:08:14.620Z,175
2016-07-04T05:09:15.401Z,180
2016-07-04T05:10:14.830Z,185
2016-07-04T05:11:15.496Z,185
2016-07-04T05:12:14.788Z,180
2016-07-04T05:13:14.734Z,175
2016-07-04T05:14:14.784Z,180
2016-07-04T05:15:14.538Z,190
2016-07-04T05:16:15.013Z,205
2016-07-04T05:17:15.346Z,215
2016-07-04T05:18:14.542Z,220
2016-07-04T05:19:14.733Z,225
2016-07-04T05:20:15.606Z,235
2016-07-04T05:21:14.742Z,235
2016-07-04T05:22:14.593Z,235
2016-07-04T05:23:15.394Z,240
2016-07-04T05:24:14.731Z,255
2016-07-04T05:25:14.657Z,275
2016-07-04T05:26:14.524Z,280
2016-07-04T05:27:14.691Z,280
2016-07-04T05:28:14.529Z,285
2016-07-04T05:29:14.687Z,275
2016-07-04T05:30:14.694Z,275
2016-07-04T05:31:14.708Z,270
2016-07-04T05:32:15.476Z,275
2016-07-04T05:33:14.500Z,275
2016-07-04T05:34:14.641Z,280
2016-07-04T05:35:14.618Z,280
2016-07-04T05:36:15.189Z,280
2016-07-04T05:37:16.148Z,280
2016-07-04T05:38:20.240Z,285
2016-07-04T05:39:16.174Z,285
2016-07-04T05:40:15.296Z,285
2016-07-04T05:41:15.034Z,280
2016-07-04T05:42:14.500Z,270
2016-07-04T05:43:14.541Z,265
2016-07-04T05:44:14.817Z,255
2016-07-04T05:45:14.627Z,245
2016-07-04T05:46:14.486Z,235
2016-07-04T05:47:14.304Z,225
2016-07-04T05:48:14.560Z,215
2016-07-04T05:49:17.655Z,205
2016-07-04T05:50:15.977Z,200
2016-07-04T05:51:14.552Z,195
2016-07-04T05:52:15.497Z,190
2016-07-04T05:53:15.476Z,190
2016-07-04T05:54:14.406Z,190
2016-07-04T05:55:14.274Z,190
2016-07-04T05:56:15.228Z,195
2016-07-04T05:57:15.780Z,195
2016-07-04T05:58:15.200Z,200
2016-07-04T05:59:14.620Z,205
2016-07-04T06:00:15.177Z,200
2016-07-04T06:01:14.512Z,205
2016-07-04T06:02:14.506Z,195
2016-07-04T06:03:15.168Z,195
2016-07-04T06:04:14.390Z,195
2016-07-04T06:05:14.486Z,205
2016-07-04T06:06:14.198Z,215
2016-07-04T06:07:15.775Z,230
2016-07-04T06:08:15.108Z,240
2016-07-04T06:09:14.379Z,235
2016-07-04T06:10:15.059Z,235
2016-07-04T06:11:15.084Z,235
2016-07-04T06:12:14.342Z,225
2016-07-04T06:13:14.119Z,215
2016-07-04T06:14:15.144Z,200
2016-07-04T06:15:15.071Z,185
2016-07-04T06:16:15.018Z,175
2016-07-04T06:17:14.392Z,160
2016-07-04T06:18:15.897Z,160
2016-07-04T06:19:14.430Z,160
2016-07-04T06:20:14.167Z,165
2016-07-04T06:21:14.346Z,175
2016-07-04T06:22:14.400Z,180
2016-07-04T06:23:14.293Z,180
2016-07-04T06:24:14.401Z,175
2016-07-04T06:25:14.393Z,175
2016-07-04T06:26:15.648Z,180
2016-07-04T06:27:15.692Z,180
2016-07-04T06:28:14.131Z,185
2016-07-04T06:29:14.956Z,190
2016-07-04T06:30:14.355Z,210
2016-07-04T06:31:14.363Z,215
2016-07-04T06:32:14.130Z,210
2016-07-04T06:33:15.113Z,190
2016-07-04T06:34:15.379Z,180
2016-07-04T06:35:15.380Z,170
2016-07-04T06:36:14.332Z,170
2016-07-04T06:37:14.989Z,170
2016-07-04T06:38:14.049Z,165
2016-07-04T06:39:15.794Z,165
2016-07-04T06:41:14.508Z,155
2016-07-04T06:42:14.959Z,160
2016-07-04T06:43:14.095Z,165
2016-07-04T06:44:14.073Z,200
2016-07-04T06:45:14.271Z,230
2016-07-04T06:46:14.217Z,235
2016-07-04T06:47:15.700Z,235
2016-07-04T06:48:14.180Z,215
2016-07-04T06:49:14.026Z,290
2016-07-04T06:50:14.972Z,320
2016-07-04T06:51:14.902Z,415
2016-07-04T06:52:14.748Z,425
2016-07-04T06:53:14.737Z,430
2016-07-04T06:54:28.849Z,495
2016-07-04T06:55:14.917Z,465
2016-07-04T06:56:14.831Z,415
2016-07-04T06:57:14.481Z,505
2016-07-04T06:58:14.022Z,580
2016-07-04T06:59:29.290Z,580
2016-07-04T07:00:14.810Z,535
2016-07-04T07:01:15.059Z,545
2016-07-04T07:02:13.955Z,585
2016-07-04T07:03:14.242Z,575
2016-07-04T07:04:14.115Z,575
2016-07-04T07:05:14.728Z,615
2016-07-04T07:06:15.323Z,640
2016-07-04T07:07:14.087Z,640
2016-07-04T07:08:14.215Z,620
2016-07-04T07:09:14.161Z,580
2016-07-04T07:10:14.751Z,565
2016-07-04T07:11:15.012Z,555
2016-07-04T07:12:14.671Z,550
2016-07-04T07:13:28.788Z,555
2016-07-04T07:14:14.944Z,550
2016-07-04T07:15:16.462Z,555
2016-07-04T07:16:14.316Z,580
2016-07-04T07:17:15.076Z,600
2016-07-04T07:18:14.366Z,585
2016-07-04T07:19:29.078Z,565
2016-07-04T07:20:14.524Z,560
2016-07-04T07:21:14.212Z,570
2016-07-04T07:22:15.103Z,580
2016-07-04T07:23:14.743Z,595
2016-07-04T07:24:15.884Z,605
2016-07-04T07:25:14.069Z,635
2016-07-04T07:26:14.677Z,675
2016-07-04T07:27:14.259Z,675
2016-07-04T07:28:14.226Z,635
2016-07-04T07:29:14.186Z,640
2016-07-04T07:30:14.280Z,685
2016-07-04T07:31:14.503Z,705
2016-07-04T07:32:15.359Z,720
2016-07-04T07:33:14.946Z,770
2016-07-04T07:34:14.299Z,840
2016-07-04T07:35:14.518Z,915
2016-07-04T07:36:15.582Z,955
2016-07-04T07:37:14.604Z,990
2016-07-04T07:38:14.313Z,1040
2016-07-04T07:39:14.327Z,1070
2016-07-04T07:40:14.996Z,1180
2016-07-04T07:41:14.178Z,1325
2016-07-04T07:42:15.020Z,1380
2016-07-04T07:43:15.103Z,1295
2016-07-04T07:44:14.457Z,1240
2016-07-04T07:45:15.060Z,1310
2016-07-04T07:46:14.400Z,1450
2016-07-04T07:47:14.651Z,1625
2016-07-04T07:48:14.489Z,1750
2016-07-04T07:49:14.392Z,1830
2016-07-04T07:50:15.010Z,1910
2016-07-04T07:51:14.158Z,2010
2016-07-04T07:52:15.042Z,1910
2016-07-04T07:53:14.507Z,1750
2016-07-04T07:54:14.653Z,1825
2016-07-04T07:55:16.406Z,2095
2016-07-04T07:56:14.869Z,2235
2016-07-04T07:57:14.456Z,2140
2016-07-04T07:58:14.591Z,2045
2016-07-04T07:59:14.510Z,2125
2016-07-04T08:00:16.138Z,2190
2016-07-04T08:01:15.577Z,2180
2016-07-04T08:02:16.204Z,2205
2016-07-04T08:03:15.858Z,2225
2016-07-04T08:04:16.135Z,2110
2016-07-04T08:05:15.229Z,1890
2016-07-04T08:06:14.643Z,1265
2016-07-04T08:07:16.119Z,520
2016-07-04T08:08:15.379Z,245
2016-07-04T08:09:15.525Z,230
2016-07-04T08:10:16.549Z,220
2016-07-04T08:11:15.336Z,215
2016-07-04T08:12:14.915Z,210
2016-07-04T08:13:16.089Z,205
2016-07-04T08:14:14.791Z,200
2016-07-04T08:15:16.698Z,200
2016-07-04T08:16:14.789Z,195
2016-07-04T08:17:14.612Z,190
2016-07-04T08:18:14.431Z,190
2016-07-04T08:19:15.157Z,190
2016-07-04T08:20:14.672Z,190
2016-07-04T08:21:15.382Z,195
2016-07-04T08:22:14.733Z,190
2016-07-04T08:23:14.942Z,190
2016-07-04T08:24:16.271Z,190
2016-07-04T08:25:14.860Z,185
2016-07-04T08:26:17.646Z,185
2016-07-04T08:28:14.790Z,185
2016-07-04T08:29:15.292Z,185
2016-07-04T08:30:15.215Z,180
2016-07-04T08:31:16.190Z,180
2016-07-04T08:32:15.185Z,180
2016-07-04T08:33:14.776Z,180
2016-07-04T08:34:15.496Z,180
2016-07-04T08:35:15.772Z,180
2016-07-04T08:36:15.484Z,180
2016-07-04T08:37:16.260Z,180
2016-07-04T08:38:15.768Z,180
2016-07-04T08:39:15.457Z,180
2016-07-04T08:40:16.850Z,180
2016-07-04T08:42:16.242Z,180
2016-07-04T08:43:30.483Z,175
2016-07-04T08:44:15.657Z,175
2016-07-04T08:45:31.749Z,175
2016-07-04T08:46:33.624Z,175
2016-07-04T08:47:16.596Z,175
2016-07-04T08:48:25.465Z,175
2016-07-04T08:49:47.803Z,175
2016-07-04T08:50:48.348Z,175
2016-07-04T08:51:47.567Z,175
2016-07-04T08:52:18.475Z,175
2016-07-04T08:53:14.901Z,180
2016-07-04T08:54:19.505Z,180
2016-07-04T08:55:35.928Z,175
2016-07-04T08:57:46.230Z,175
2016-07-04T08:58:35.970Z,175
2016-07-04T08:59:31.089Z,175
2016-07-04T09:26:07.183Z,140
2016-07-04T09:27:06.418Z,140
2016-07-04T09:28:06.612Z,135
2016-07-04T09:29:07.770Z,140
2016-07-04T09:30:07.731Z,175
2016-07-04T09:31:23.667Z,180
2016-07-04T09:32:08.913Z,180
2016-07-04T09:33:08.485Z,180
2016-07-04T09:35:07.530Z,185
2016-07-04T09:36:06.970Z,185
2016-07-04T09:37:22.759Z,170
2016-07-04T09:38:22.173Z,180
2016-07-04T09:39:24.400Z,185
2016-07-04T09:40:23.816Z,185
2016-07-04T09:41:07.103Z,190
2016-07-04T09:42:09.206Z,210
2016-07-04T09:43:08.963Z,220
2016-07-04T09:44:09.494Z,210
2016-07-04T09:45:09.612Z,185
2016-07-04T09:46:08.088Z,185
2016-07-04T09:47:08.574Z,190
2016-07-04T09:48:08.655Z,195
2016-07-04T09:49:21.966Z,200
2016-07-04T09:50:08.453Z,220
2016-07-04T09:51:09.503Z,250
2016-07-04T09:52:09.537Z,270
2016-07-04T09:54:08.056Z,320
2016-07-04T09:55:37.482Z,345
2016-07-04T09:56:10.960Z,345
2016-07-04T09:57:08.505Z,340
2016-07-04T09:58:10.211Z,330
2016-07-04T09:59:23.172Z,330
2016-07-04T10:00:09.433Z,335
2016-07-04T10:01:08.190Z,350
2016-07-04T10:02:37.670Z,360
2016-07-04T10:03:09.081Z,345
2016-07-04T10:04:07.915Z,325
2016-07-04T10:05:07.947Z,335
2016-07-04T10:06:22.957Z,385
2016-07-04T10:07:09.157Z,415
2016-07-04T10:08:09.087Z,465
2016-07-04T10:09:38.184Z,530
2016-07-04T10:10:09.351Z,530
2016-07-04T10:11:08.373Z,530
2016-07-04T10:12:09.299Z,540
2016-07-04T10:13:37.209Z,540
2016-07-04T10:15:23.652Z,520
2016-07-04T10:16:10.286Z,535
2016-07-04T10:18:24.312Z,545
2016-07-04T10:19:51.899Z,540
2016-07-04T10:20:09.969Z,545
2016-07-04T10:21:37.945Z,545
2016-07-04T10:22:09.086Z,535
2016-07-04T10:23:39.143Z,505
2016-07-04T10:24:23.862Z,495
2016-07-04T10:25:09.834Z,495
2016-07-04T10:26:23.703Z,515
2016-07-04T10:27:09.220Z,520
2016-07-04T10:28:10.896Z,530
2016-07-04T10:29:10.102Z,530
2016-07-04T10:31:24.328Z,510
2016-07-04T10:32:10.521Z,500
2016-07-04T10:33:08.903Z,495
2016-07-04T10:34:09.817Z,485
2016-07-04T10:35:24.078Z,455
2016-07-04T10:36:24.598Z,435
2016-07-04T10:37:09.875Z,415
2016-07-04T10:38:09.538Z,395
2016-07-04T10:39:09.667Z,390
2016-07-04T10:40:10.133Z,405
2016-07-04T10:41:09.928Z,415
2016-07-04T10:42:38.382Z,435
2016-07-04T10:43:23.581Z,455
2016-07-04T10:44:23.730Z,475
2016-07-04T10:45:24.326Z,505
2016-07-04T10:46:52.792Z,555
2016-07-04T10:47:38.840Z,570
2016-07-04T10:48:24.090Z,595
2016-07-04T10:49:38.130Z,615
2016-07-04T10:51:39.675Z,640
2016-07-04T10:53:11.590Z,645
2016-07-04T10:54:09.627Z,655
2016-07-04T10:55:10.564Z,640
2016-07-04T10:56:08.261Z,645
2016-07-04T10:57:23.505Z,640
2016-07-04T10:58:23.706Z,615
2016-07-04T10:59:38.548Z,600
2016-07-04T11:00:10.034Z,595
2016-07-04T11:01:09.772Z,595
2016-07-04T11:02:23.413Z,545
2016-07-04T11:03:10.160Z,525
2016-07-04T11:04:10.275Z,505
2016-07-04T11:05:24.103Z,490
2016-07-04T11:06:23.808Z,470
2016-07-04T11:07:10.236Z,465
2016-07-04T11:08:37.697Z,475
2016-07-04T11:10:09.825Z,480
2016-07-04T11:11:08.942Z,475
2016-07-04T11:12:10.382Z,485
2016-07-04T11:13:10.007Z,520
2016-07-04T11:14:09.692Z,555
2016-07-04T11:15:08.524Z,565
2016-07-04T11:16:08.695Z,575
2016-07-04T11:17:24.431Z,590
2016-07-04T11:18:11.523Z,595
2016-07-04T11:19:12.172Z,595
2016-07-04T11:20:24.465Z,590
2016-07-04T11:21:10.894Z,585
2016-07-04T11:22:24.806Z,560
2016-07-04T11:23:26.142Z,540
2016-07-04T11:24:24.844Z,515
2016-07-04T11:25:10.606Z,515
2016-07-04T11:26:11.076Z,515
2016-07-04T11:27:09.770Z,515
2016-07-04T11:28:25.252Z,495
2016-07-04T11:29:11.201Z,475
2016-07-04T11:30:11.258Z,455
2016-07-04T11:31:10.140Z,440
2016-07-04T11:32:10.399Z,405
2016-07-04T11:33:09.768Z,390
2016-07-04T11:34:24.271Z,365
2016-07-04T11:35:11.347Z,340
2016-07-04T11:36:24.892Z,345
2016-07-04T11:38:24.948Z,335
2016-07-04T11:39:10.892Z,325
2016-07-04T11:40:10.523Z,315
2016-07-04T11:41:10.149Z,325
2016-07-04T11:42:23.051Z,340
2016-07-04T11:43:23.764Z,365
2016-07-04T11:44:10.228Z,375
2016-07-04T11:45:11.303Z,365
2016-07-04T11:46:10.902Z,320
2016-07-04T11:47:10.499Z,275
2016-07-04T11:48:38.832Z,245
2016-07-04T11:49:11.270Z,245
2016-07-04T11:50:09.163Z,250
2016-07-04T11:51:09.559Z,260
2016-07-04T11:52:24.766Z,275
2016-07-04T11:54:24.726Z,295
2016-07-04T11:55:38.394Z,310
2016-07-04T11:56:09.546Z,325
2016-07-04T11:57:09.420Z,335
2016-07-04T11:58:24.222Z,345
2016-07-04T11:59:08.393Z,340
2016-07-04T12:00:09.982Z,360
2016-07-04T12:01:23.099Z,375
2016-07-04T12:02:10.713Z,385
2016-07-04T12:03:09.939Z,390
2016-07-04T12:04:10.516Z,390
2016-07-04T12:05:09.728Z,400
2016-07-04T12:06:10.533Z,390
2016-07-04T12:07:38.445Z,400
2016-07-04T12:09:25.718Z,370
2016-07-04T12:10:24.155Z,355
2016-07-04T12:11:38.725Z,340
2016-07-04T12:13:11.331Z,300
2016-07-04T12:14:24.565Z,275
2016-07-04T12:15:24.281Z,275
2016-07-04T12:16:24.674Z,295
2016-07-04T12:17:08.992Z,310
2016-07-04T12:19:09.163Z,335
2016-07-04T12:20:24.247Z,370
2016-07-04T12:21:23.855Z,395
2016-07-04T12:22:21.750Z,415
2016-07-04T12:23:24.089Z,415
2016-07-04T12:25:37.071Z,440
2016-07-04T12:26:23.952Z,435
2016-07-04T12:29:10.584Z,370
2016-07-04T12:30:10.086Z,360
2016-07-04T12:31:38.630Z,360
2016-07-04T12:33:10.165Z,365
2016-07-04T12:34:52.358Z,375
2016-07-04T12:35:10.034Z,365
2016-07-04T12:36:25.101Z,370
2016-07-04T12:37:11.746Z,375
2016-07-04T12:38:11.160Z,385
2016-07-04T12:39:10.190Z,375
2016-07-04T12:40:11.961Z,365
2016-07-04T12:41:07.654Z,350
2016-07-04T12:43:11.043Z,330
2016-07-04T12:45:24.529Z,295
2016-07-04T12:46:10.908Z,275
2016-07-04T12:47:37.999Z,295
2016-07-04T12:48:24.731Z,300
2016-07-04T12:50:12.640Z,280
2016-07-04T12:51:10.482Z,300
2016-07-04T12:53:23.347Z,355
2016-07-04T12:54:24.657Z,375
2016-07-04T12:55:14.081Z,390
2016-07-04T12:57:25.026Z,480
2016-07-04T12:58:23.448Z,490
2016-07-04T12:59:11.177Z,480
2016-07-04T13:00:07.209Z,500
2016-07-04T13:01:07.947Z,500
2016-07-04T13:02:24.122Z,480
2016-07-04T13:03:09.099Z,475
2016-07-04T13:04:09.302Z,505
2016-07-04T13:05:10.917Z,485
2016-07-04T13:08:12.117Z,430
2016-07-04T13:10:10.743Z,410
2016-07-04T13:11:10.911Z,380
2016-07-04T13:13:11.339Z,360
2016-07-04T13:14:10.950Z,360
2016-07-04T13:16:24.530Z,320
2016-07-04T13:17:09.190Z,345
2016-07-04T13:18:37.930Z,360
2016-07-04T13:19:38.725Z,375
2016-07-04T13:22:38.965Z,305
2016-07-04T13:23:11.059Z,300
2016-07-04T13:26:27.150Z,355
2016-07-04T13:29:03.670Z,470
2016-07-04T13:30:36.744Z,420
2016-07-04T13:33:02.099Z,340
2016-07-04T13:33:35.334Z,330
2016-07-04T13:35:33.374Z,355
2016-07-04T13:37:34.666Z,365
2016-07-04T13:38:35.327Z,370
2016-07-04T13:39:35.274Z,350
2016-07-04T13:40:34.503Z,340
2016-07-04T13:41:36.270Z,330
2016-07-04T13:42:47.881Z,310
2016-07-04T13:43:48.792Z,290
2016-07-04T13:44:33.676Z,280
2016-07-04T13:46:48.378Z,275
2016-07-04T13:47:49.209Z,290
2016-07-04T13:48:46.585Z,305
2016-07-04T13:49:33.474Z,320
2016-07-04T13:50:32.678Z,330
2016-07-04T13:51:47.667Z,330
2016-07-04T13:53:02.814Z,340
2016-07-04T13:53:48.685Z,315
2016-07-04T13:55:02.124Z,250
2016-07-04T13:56:01.956Z,225
2016-07-04T13:57:01.373Z,205
2016-07-04T13:57:33.588Z,205
2016-07-04T13:58:47.347Z,205
2016-07-04T13:59:34.240Z,210
2016-07-04T14:00:31.871Z,240
2016-07-04T14:01:33.268Z,250
2016-07-04T14:02:48.100Z,265
2016-07-04T14:04:34.714Z,295
2016-07-04T14:05:34.243Z,305
2016-07-04T14:07:48.652Z,295
2016-07-04T14:08:48.137Z,260
2016-07-04T14:10:01.799Z,230
2016-07-04T14:10:47.696Z,225
2016-07-04T14:11:48.260Z,220
2016-07-04T14:12:47.924Z,210
2016-07-04T14:14:01.853Z,225
2016-07-04T14:14:48.683Z,220
2016-07-04T14:16:02.190Z,235
2016-07-04T14:16:49.631Z,245
2016-07-04T14:17:35.879Z,235
2016-07-04T14:18:34.957Z,195
2016-07-04T14:20:49.263Z,175
2016-07-04T14:22:02.789Z,205
2016-07-04T14:23:48.791Z,210
2016-07-04T14:24:34.864Z,180
2016-07-04T14:25:49.157Z,175
2016-07-04T14:26:32.587Z,190
2016-07-04T14:27:48.612Z,230
2016-07-04T14:28:48.409Z,250
2016-07-04T14:29:35.073Z,245
2016-07-04T14:30:34.648Z,275
2016-07-04T14:31:34.023Z,310
2016-07-04T14:33:48.006Z,330
2016-07-04T14:34:34.783Z,315
2016-07-04T14:36:49.242Z,305
2016-07-04T14:37:48.515Z,290
2016-07-04T14:38:34.540Z,305
2016-07-04T14:42:01.995Z,290
2016-07-04T14:42:33.294Z,270
2016-07-04T14:43:34.610Z,260
2016-07-04T14:44:31.876Z,265
2016-07-04T14:45:47.731Z,265
2016-07-04T14:47:01.629Z,255
2016-07-04T14:47:33.774Z,255
2016-07-04T14:49:03.004Z,240
2016-07-04T14:50:02.767Z,245
2016-07-04T14:50:36.799Z,240
2016-07-04T14:51:48.119Z,235
2016-07-04T14:53:33.462Z,215
2016-07-04T14:54:49.131Z,210
2016-07-04T14:55:33.645Z,210
2016-07-04T14:56:32.730Z,205
2016-07-04T14:57:32.943Z,190
2016-07-04T14:58:32.830Z,175
2016-07-04T14:59:33.631Z,165
2016-07-04T15:00:34.049Z,170
2016-07-04T15:01:36.305Z,200
2016-07-04T15:02:34.549Z,190
2016-07-04T15:03:47.573Z,210
2016-07-04T15:05:33.643Z,220
2016-07-04T15:06:34.495Z,215
2016-07-04T15:08:35.829Z,210
2016-07-04T15:10:02.539Z,205
2016-07-04T15:10:34.985Z,195
2016-07-04T15:11:33.636Z,190
2016-07-04T15:13:01.325Z,190
2016-07-04T15:13:33.610Z,200
2016-07-04T15:14:34.320Z,200
2016-07-04T15:15:47.897Z,210
2016-07-04T15:16:34.162Z,195
2016-07-04T15:18:01.093Z,205
2016-07-04T15:18:34.691Z,215
2016-07-04T15:19:47.772Z,210
2016-07-04T15:20:34.303Z,200